BCS962 EDDP-LCLK
Flight info
| Callsign | BCS962 |
|---|---|
| Flight time | N/A |
| Altitude | 39000 |
| Route | DRN2E DRN Z21 OMELO DCT EVIKU DCT NAVTI DCT BEGLA DCT SVR DCT BABIT DCT INRES DCT GINAM DCT IBISI DCT RUGAS UN128 FSK DCT AKINA UL995 RDS UM601 EVENO M601 BONEK |
| Aircraft | A333/H-SDE3GHIJ2J3J5M1RVWXY/LB2D1 |
Departure
| Time | N/A |
|---|---|
| Airport | Leipzig/Halle Airport (EDDP) |
Arrival
| Time | 2026-04-29 12:22 |
|---|---|
| Airport | Larnaca International Airport (LCLK) |
| Time | Latitude | Longitude | Altitude | Speed | Heading |
|---|---|---|---|---|---|
| 2026-04-29 10:24 | 44.49108 | 20.30162 | 39197 ft | 508 kts | 150° |
| 2026-04-29 10:25 | 44.43207 | 20.35607 | 39191 ft | 508 kts | 150° |
| 2026-04-29 10:25 | 44.37303 | 20.41040 | 39184 ft | 508 kts | 150° |
| 2026-04-29 10:26 | 44.31393 | 20.46460 | 39188 ft | 508 kts | 150° |
| 2026-04-29 10:26 | 44.25488 | 20.51873 | 39175 ft | 508 kts | 150° |
| 2026-04-29 10:27 | 44.16629 | 20.59965 | 39171 ft | 508 kts | 150° |
| 2026-04-29 10:28 | 44.10716 | 20.65355 | 39165 ft | 507 kts | 150° |
| 2026-04-29 10:28 | 44.04806 | 20.70721 | 39165 ft | 508 kts | 150° |
| 2026-04-29 10:29 | 43.98887 | 20.76081 | 39159 ft | 507 kts | 150° |
| 2026-04-29 10:29 | 43.93028 | 20.81419 | 39156 ft | 507 kts | 150° |
| 2026-04-29 10:30 | 43.87150 | 20.86799 | 39153 ft | 506 kts | 150° |
| 2026-04-29 10:30 | 43.81266 | 20.92174 | 39153 ft | 506 kts | 150° |
| 2026-04-29 10:31 | 43.75386 | 20.97531 | 39156 ft | 506 kts | 150° |
| 2026-04-29 10:31 | 43.69498 | 21.02881 | 39154 ft | 507 kts | 150° |
| 2026-04-29 10:32 | 43.63599 | 21.08221 | 39148 ft | 507 kts | 150° |
| 2026-04-29 10:32 | 43.57695 | 21.13553 | 39149 ft | 507 kts | 150° |
| 2026-04-29 10:33 | 43.51788 | 21.18876 | 39134 ft | 507 kts | 150° |
| 2026-04-29 10:33 | 43.45882 | 21.24185 | 39135 ft | 507 kts | 150° |
| 2026-04-29 10:34 | 43.40011 | 21.29448 | 39142 ft | 507 kts | 150° |
| 2026-04-29 10:34 | 43.34063 | 21.34776 | 39126 ft | 507 kts | 151° |
| 2026-04-29 10:35 | 43.28192 | 21.40004 | 39128 ft | 507 kts | 151° |
| 2026-04-29 10:35 | 43.22266 | 21.45229 | 39128 ft | 506 kts | 151° |
| 2026-04-29 10:36 | 43.16339 | 21.50434 | 39129 ft | 506 kts | 151° |
| 2026-04-29 10:36 | 43.10407 | 21.55627 | 39119 ft | 505 kts | 151° |
| 2026-04-29 10:37 | 43.04483 | 21.60809 | 39119 ft | 505 kts | 151° |
| 2026-04-29 10:37 | 42.98570 | 21.65967 | 39118 ft | 504 kts | 151° |
| 2026-04-29 10:38 | 42.92499 | 21.70685 | 39120 ft | 501 kts | 156° |
| 2026-04-29 10:38 | 42.86319 | 21.75057 | 39118 ft | 500 kts | 157° |
| 2026-04-29 10:39 | 42.80151 | 21.79336 | 39119 ft | 500 kts | 157° |
| 2026-04-29 10:39 | 42.73953 | 21.83629 | 39120 ft | 499 kts | 157° |
| 2026-04-29 10:40 | 42.67757 | 21.87920 | 39119 ft | 499 kts | 157° |
| 2026-04-29 10:40 | 42.61575 | 21.92198 | 39099 ft | 498 kts | 157° |
| 2026-04-29 10:41 | 42.55393 | 21.96473 | 39101 ft | 498 kts | 157° |
| 2026-04-29 10:41 | 42.49225 | 22.00723 | 39099 ft | 497 kts | 157° |
| 2026-04-29 10:42 | 42.43055 | 22.04961 | 39090 ft | 497 kts | 157° |
| 2026-04-29 10:42 | 42.36879 | 22.09198 | 39091 ft | 497 kts | 157° |
| 2026-04-29 10:43 | 42.30749 | 22.13397 | 39091 ft | 497 kts | 157° |
| 2026-04-29 10:43 | 42.24582 | 22.17613 | 39090 ft | 497 kts | 157° |
| 2026-04-29 10:44 | 42.18405 | 22.21823 | 39083 ft | 497 kts | 157° |
| 2026-04-29 10:44 | 42.12234 | 22.26022 | 39083 ft | 497 kts | 157° |
| 2026-04-29 10:45 | 42.06055 | 22.30212 | 39082 ft | 497 kts | 157° |
| 2026-04-29 10:45 | 41.99928 | 22.34359 | 39090 ft | 496 kts | 157° |
| 2026-04-29 10:46 | 41.93714 | 22.38558 | 39091 ft | 496 kts | 157° |
| 2026-04-29 10:46 | 41.87587 | 22.42687 | 39091 ft | 496 kts | 157° |
| 2026-04-29 10:47 | 41.81423 | 22.46831 | 39090 ft | 495 kts | 157° |
| 2026-04-29 10:47 | 41.75264 | 22.50961 | 39090 ft | 495 kts | 157° |
| 2026-04-29 10:48 | 41.69098 | 22.55095 | 39100 ft | 495 kts | 157° |
| 2026-04-29 10:48 | 41.62933 | 22.59215 | 39102 ft | 495 kts | 157° |
| 2026-04-29 10:49 | 41.56769 | 22.63327 | 39101 ft | 495 kts | 157° |
| 2026-04-29 10:49 | 41.50604 | 22.67431 | 39101 ft | 495 kts | 157° |
| 2026-04-29 10:50 | 41.44435 | 22.71527 | 39109 ft | 494 kts | 157° |
| 2026-04-29 10:50 | 41.38277 | 22.75604 | 39111 ft | 495 kts | 157° |
| 2026-04-29 10:51 | 41.32198 | 22.79889 | 39110 ft | 496 kts | 152° |
| 2026-04-29 10:51 | 41.26363 | 22.84806 | 39110 ft | 497 kts | 150° |
| 2026-04-29 10:52 | 41.20580 | 22.89836 | 39118 ft | 497 kts | 149° |
| 2026-04-29 10:52 | 41.14830 | 22.94844 | 39117 ft | 497 kts | 149° |
| 2026-04-29 10:53 | 41.09045 | 22.99853 | 39119 ft | 496 kts | 150° |
| 2026-04-29 10:53 | 41.03229 | 23.04798 | 39118 ft | 496 kts | 150° |
| 2026-04-29 10:54 | 40.97398 | 23.09713 | 39118 ft | 496 kts | 150° |
| 2026-04-29 10:54 | 40.91579 | 23.14614 | 39128 ft | 496 kts | 150° |
| 2026-04-29 10:55 | 40.85764 | 23.19509 | 39127 ft | 495 kts | 150° |
| 2026-04-29 10:55 | 40.79952 | 23.24396 | 39128 ft | 495 kts | 150° |
| 2026-04-29 10:56 | 40.74146 | 23.29266 | 39128 ft | 494 kts | 150° |
| 2026-04-29 10:56 | 40.68335 | 23.34128 | 39128 ft | 494 kts | 150° |
| 2026-04-29 10:57 | 40.62525 | 23.38980 | 39127 ft | 494 kts | 150° |
| 2026-04-29 10:57 | 40.56722 | 23.43817 | 39127 ft | 494 kts | 150° |
| 2026-04-29 10:58 | 40.50950 | 23.48615 | 39128 ft | 493 kts | 150° |
| 2026-04-29 10:58 | 40.45141 | 23.53436 | 39126 ft | 493 kts | 150° |
| 2026-04-29 10:59 | 40.39345 | 23.58236 | 39129 ft | 493 kts | 150° |
| 2026-04-29 10:59 | 40.33543 | 23.63031 | 39129 ft | 493 kts | 150° |
| 2026-04-29 11:00 | 40.27744 | 23.67814 | 39130 ft | 492 kts | 150° |
| 2026-04-29 11:00 | 40.21949 | 23.72584 | 39127 ft | 492 kts | 150° |
| 2026-04-29 11:01 | 40.16156 | 23.77344 | 39130 ft | 491 kts | 150° |
| 2026-04-29 11:01 | 40.10402 | 23.82061 | 39123 ft | 491 kts | 150° |
| 2026-04-29 11:02 | 40.04577 | 23.86824 | 39118 ft | 490 kts | 150° |
| 2026-04-29 11:02 | 39.98833 | 23.91517 | 39119 ft | 491 kts | 150° |
| 2026-04-29 11:03 | 39.93035 | 23.96238 | 39118 ft | 491 kts | 150° |
| 2026-04-29 11:03 | 39.87240 | 24.00948 | 39118 ft | 491 kts | 150° |
| 2026-04-29 11:04 | 39.82418 | 24.04863 | 39113 ft | 491 kts | 150° |
| 2026-04-29 11:04 | 39.76617 | 24.09561 | 39119 ft | 491 kts | 150° |
| 2026-04-29 11:05 | 39.70814 | 24.14254 | 39110 ft | 491 kts | 150° |
| 2026-04-29 11:05 | 39.65012 | 24.18933 | 39109 ft | 490 kts | 151° |
| 2026-04-29 11:06 | 39.59214 | 24.23601 | 39110 ft | 490 kts | 150° |
| 2026-04-29 11:06 | 39.53410 | 24.28268 | 39110 ft | 491 kts | 151° |
| 2026-04-29 11:07 | 39.47601 | 24.32925 | 39110 ft | 491 kts | 151° |
| 2026-04-29 11:07 | 39.41825 | 24.37548 | 39109 ft | 491 kts | 151° |
| 2026-04-29 11:08 | 39.36009 | 24.42190 | 39109 ft | 491 kts | 151° |
| 2026-04-29 11:08 | 39.30192 | 24.46831 | 39110 ft | 491 kts | 151° |
| 2026-04-29 11:09 | 39.24378 | 24.51460 | 39110 ft | 491 kts | 151° |
| 2026-04-29 11:09 | 39.18559 | 24.56082 | 39110 ft | 490 kts | 151° |
| 2026-04-29 11:10 | 39.12744 | 24.60688 | 39109 ft | 491 kts | 151° |
| 2026-04-29 11:10 | 39.06932 | 24.65287 | 39109 ft | 491 kts | 152° |
| 2026-04-29 11:11 | 39.01112 | 24.69883 | 39109 ft | 491 kts | 152° |
| 2026-04-29 11:11 | 38.95287 | 24.74474 | 39104 ft | 491 kts | 152° |
| 2026-04-29 11:12 | 38.89460 | 24.79054 | 39100 ft | 491 kts | 152° |
| 2026-04-29 11:12 | 38.83625 | 24.83633 | 39101 ft | 491 kts | 152° |
| 2026-04-29 11:13 | 38.77802 | 24.88195 | 39101 ft | 491 kts | 152° |
| 2026-04-29 11:13 | 38.72002 | 24.92726 | 39100 ft | 491 kts | 152° |
| 2026-04-29 11:14 | 38.66172 | 24.97274 | 39101 ft | 491 kts | 152° |
| 2026-04-29 11:14 | 38.60337 | 25.01822 | 39100 ft | 491 kts | 152° |
| 2026-04-29 11:15 | 38.54499 | 25.06361 | 39098 ft | 491 kts | 152° |
| 2026-04-29 11:15 | 38.48658 | 25.10894 | 39091 ft | 491 kts | 152° |
| 2026-04-29 11:16 | 38.42821 | 25.15412 | 39091 ft | 490 kts | 152° |
| 2026-04-29 11:16 | 38.36985 | 25.19924 | 39091 ft | 491 kts | 152° |
| 2026-04-29 11:17 | 38.31147 | 25.24426 | 39091 ft | 491 kts | 152° |
| 2026-04-29 11:17 | 38.25305 | 25.28925 | 39082 ft | 491 kts | 152° |
| 2026-04-29 11:18 | 38.19459 | 25.33417 | 39082 ft | 491 kts | 152° |
| 2026-04-29 11:18 | 38.13653 | 25.37872 | 39081 ft | 490 kts | 152° |
| 2026-04-29 11:19 | 38.07800 | 25.42352 | 39073 ft | 491 kts | 152° |
| 2026-04-29 11:19 | 38.01952 | 25.46818 | 39072 ft | 491 kts | 152° |
| 2026-04-29 11:20 | 37.96103 | 25.51278 | 39072 ft | 491 kts | 152° |
| 2026-04-29 11:20 | 37.90250 | 25.55736 | 39073 ft | 490 kts | 152° |
| 2026-04-29 11:21 | 37.84392 | 25.60186 | 39073 ft | 491 kts | 152° |
| 2026-04-29 11:21 | 37.78535 | 25.64624 | 39072 ft | 490 kts | 152° |
| 2026-04-29 11:22 | 37.72681 | 25.69059 | 39073 ft | 491 kts | 152° |
| 2026-04-29 11:22 | 37.66820 | 25.73487 | 39071 ft | 491 kts | 152° |
| 2026-04-29 11:23 | 37.60957 | 25.77908 | 39073 ft | 491 kts | 152° |
| 2026-04-29 11:23 | 37.55089 | 25.82325 | 39072 ft | 491 kts | 152° |
| 2026-04-29 11:24 | 37.49214 | 25.86740 | 39073 ft | 492 kts | 152° |
| 2026-04-29 11:24 | 37.43339 | 25.91149 | 39073 ft | 491 kts | 153° |
| 2026-04-29 11:25 | 37.37501 | 25.95517 | 39072 ft | 491 kts | 153° |
| 2026-04-29 11:25 | 37.31621 | 25.99906 | 39072 ft | 491 kts | 153° |
| 2026-04-29 11:26 | 37.22796 | 26.06488 | 39055 ft | 492 kts | 153° |
| 2026-04-29 11:26 | 37.16892 | 26.10879 | 39053 ft | 493 kts | 153° |
| 2026-04-29 11:27 | 37.10988 | 26.15264 | 39054 ft | 493 kts | 153° |
| 2026-04-29 11:27 | 37.05085 | 26.19638 | 39054 ft | 493 kts | 153° |
| 2026-04-29 11:28 | 36.99565 | 26.24788 | 39045 ft | 500 kts | 136° |
| 2026-04-29 11:28 | 36.97347 | 26.28137 | 39046 ft | 502 kts | 125° |
| 2026-04-29 11:28 | 36.95644 | 26.31892 | 39048 ft | 504 kts | 117° |
| 2026-04-29 11:29 | 36.92769 | 26.39909 | 39044 ft | 507 kts | 113° |
| 2026-04-29 11:29 | 36.90076 | 26.48061 | 39036 ft | 507 kts | 113° |
| 2026-04-29 11:30 | 36.87361 | 26.56204 | 39035 ft | 507 kts | 113° |
| 2026-04-29 11:30 | 36.84599 | 26.64312 | 39032 ft | 507 kts | 114° |
| 2026-04-29 11:31 | 36.81813 | 26.72405 | 39026 ft | 507 kts | 114° |
| 2026-04-29 11:31 | 36.79026 | 26.80486 | 39027 ft | 507 kts | 114° |
| 2026-04-29 11:32 | 36.76245 | 26.88532 | 39028 ft | 508 kts | 114° |
| 2026-04-29 11:32 | 36.73421 | 26.96682 | 39008 ft | 508 kts | 114° |
| 2026-04-29 11:33 | 36.70631 | 27.04725 | 39020 ft | 508 kts | 114° |
| 2026-04-29 11:33 | 36.67818 | 27.12811 | 39027 ft | 509 kts | 114° |
| 2026-04-29 11:34 | 36.64994 | 27.20894 | 39011 ft | 509 kts | 114° |
| 2026-04-29 11:34 | 36.62161 | 27.28975 | 39010 ft | 509 kts | 114° |
| 2026-04-29 11:35 | 36.59338 | 27.37003 | 39018 ft | 509 kts | 114° |
| 2026-04-29 11:35 | 36.56491 | 27.45078 | 39003 ft | 510 kts | 114° |
| 2026-04-29 11:36 | 36.53639 | 27.53152 | 39003 ft | 510 kts | 114° |
| 2026-04-29 11:36 | 36.50778 | 27.61230 | 39007 ft | 511 kts | 114° |
| 2026-04-29 11:37 | 36.47909 | 27.69310 | 38997 ft | 510 kts | 114° |
| 2026-04-29 11:37 | 36.45033 | 27.77384 | 39003 ft | 512 kts | 114° |
| 2026-04-29 11:38 | 36.42144 | 27.85469 | 38997 ft | 512 kts | 114° |
| 2026-04-29 11:38 | 36.39250 | 27.93553 | 38994 ft | 512 kts | 114° |
| 2026-04-29 11:39 | 36.36352 | 28.01623 | 38992 ft | 512 kts | 114° |
| 2026-04-29 11:39 | 36.33644 | 28.09792 | 38991 ft | 511 kts | 108° |
| 2026-04-29 11:40 | 36.31416 | 28.18170 | 38989 ft | 512 kts | 107° |
| 2026-04-29 11:40 | 36.29273 | 28.26598 | 38990 ft | 512 kts | 107° |
| 2026-04-29 11:41 | 36.27131 | 28.35022 | 38987 ft | 512 kts | 107° |
| 2026-04-29 11:41 | 36.24973 | 28.43435 | 38993 ft | 512 kts | 107° |
| 2026-04-29 11:42 | 36.22814 | 28.51789 | 38996 ft | 512 kts | 107° |
| 2026-04-29 11:42 | 36.20633 | 28.60177 | 38994 ft | 511 kts | 107° |
| 2026-04-29 11:43 | 36.18446 | 28.68560 | 38998 ft | 511 kts | 107° |
| 2026-04-29 11:43 | 36.16255 | 28.76928 | 38998 ft | 511 kts | 107° |
| 2026-04-29 11:44 | 36.14062 | 28.85284 | 39001 ft | 511 kts | 108° |
| 2026-04-29 11:44 | 36.11865 | 28.93636 | 38999 ft | 510 kts | 108° |
| 2026-04-29 11:45 | 36.09664 | 29.01979 | 38997 ft | 510 kts | 108° |
| 2026-04-29 11:45 | 36.07470 | 29.10257 | 39002 ft | 510 kts | 108° |
| 2026-04-29 11:46 | 36.05256 | 29.18580 | 39008 ft | 510 kts | 108° |
| 2026-04-29 11:46 | 36.03039 | 29.26895 | 39011 ft | 510 kts | 108° |
| 2026-04-29 11:47 | 36.00813 | 29.35221 | 38996 ft | 510 kts | 108° |
| 2026-04-29 11:47 | 35.98582 | 29.43539 | 38995 ft | 510 kts | 108° |
| 2026-04-29 11:48 | 35.96340 | 29.51872 | 39003 ft | 511 kts | 108° |
| 2026-04-29 11:48 | 35.94098 | 29.60201 | 39005 ft | 511 kts | 108° |
| 2026-04-29 11:49 | 35.91854 | 29.68531 | 38997 ft | 511 kts | 108° |
| 2026-04-29 11:49 | 35.89627 | 29.76792 | 38996 ft | 510 kts | 108° |
| 2026-04-29 11:50 | 35.87384 | 29.85093 | 39000 ft | 510 kts | 108° |
| 2026-04-29 11:50 | 35.85133 | 29.93394 | 38998 ft | 510 kts | 108° |
| 2026-04-29 11:51 | 35.82889 | 30.01692 | 38997 ft | 510 kts | 107° |
| 2026-04-29 11:51 | 35.80769 | 30.10036 | 38997 ft | 510 kts | 106° |
| 2026-04-29 11:52 | 35.78690 | 30.18387 | 39001 ft | 510 kts | 106° |
| 2026-04-29 11:52 | 35.76591 | 30.26753 | 39002 ft | 510 kts | 107° |
| 2026-04-29 11:53 | 35.74838 | 30.33682 | 38997 ft | 510 kts | 107° |
| 2026-04-29 11:53 | 35.72714 | 30.42024 | 38997 ft | 510 kts | 107° |
| 2026-04-29 11:54 | 35.70585 | 30.50355 | 38997 ft | 511 kts | 107° |
| 2026-04-29 11:54 | 35.68449 | 30.58692 | 39009 ft | 511 kts | 107° |
| 2026-04-29 11:55 | 35.66313 | 30.67012 | 38998 ft | 510 kts | 107° |
| 2026-04-29 11:55 | 35.64174 | 30.75323 | 38997 ft | 510 kts | 107° |
| 2026-04-29 11:56 | 35.62025 | 30.83634 | 39004 ft | 510 kts | 107° |
| 2026-04-29 11:56 | 35.59897 | 30.91968 | 39019 ft | 510 kts | 107° |
| 2026-04-29 11:57 | 35.57815 | 31.00231 | 39005 ft | 510 kts | 107° |
| 2026-04-29 11:57 | 35.55712 | 31.08542 | 38994 ft | 510 kts | 107° |
| 2026-04-29 11:58 | 35.54655 | 31.12701 | 38780 ft | 510 kts | 107° |
| 2026-04-29 11:58 | 35.53595 | 31.16864 | 38513 ft | 509 kts | 107° |
| 2026-04-29 11:58 | 35.52538 | 31.21004 | 38258 ft | 508 kts | 107° |
| 2026-04-29 11:58 | 35.51484 | 31.25134 | 38008 ft | 507 kts | 107° |
| 2026-04-29 11:59 | 35.50426 | 31.29267 | 37758 ft | 506 kts | 107° |
| 2026-04-29 11:59 | 35.49371 | 31.33383 | 37506 ft | 505 kts | 107° |
| 2026-04-29 11:59 | 35.48314 | 31.37495 | 37259 ft | 504 kts | 106° |
| 2026-04-29 11:59 | 35.47260 | 31.41589 | 37009 ft | 503 kts | 106° |
| 2026-04-29 12:00 | 35.46203 | 31.45688 | 36759 ft | 502 kts | 106° |
| 2026-04-29 12:00 | 35.45151 | 31.49764 | 36507 ft | 501 kts | 106° |
| 2026-04-29 12:00 | 35.44110 | 31.53796 | 36261 ft | 501 kts | 106° |
| 2026-04-29 12:00 | 35.43057 | 31.57871 | 36016 ft | 501 kts | 106° |
| 2026-04-29 12:01 | 35.42002 | 31.61938 | 35774 ft | 502 kts | 106° |
| 2026-04-29 12:01 | 35.40938 | 31.66037 | 35502 ft | 505 kts | 105° |
| 2026-04-29 12:01 | 35.39876 | 31.70130 | 35253 ft | 504 kts | 105° |
| 2026-04-29 12:01 | 35.38813 | 31.74218 | 35002 ft | 503 kts | 105° |
| 2026-04-29 12:02 | 35.37748 | 31.78302 | 34752 ft | 503 kts | 105° |
| 2026-04-29 12:02 | 35.36682 | 31.82377 | 34500 ft | 502 kts | 105° |
| 2026-04-29 12:02 | 35.35616 | 31.86455 | 34257 ft | 502 kts | 105° |
| 2026-04-29 12:02 | 35.34551 | 31.90526 | 33761 ft | 501 kts | 105° |
| 2026-04-29 12:03 | 35.33489 | 31.94575 | 32868 ft | 496 kts | 105° |
| 2026-04-29 12:03 | 35.32435 | 31.98573 | 31938 ft | 490 kts | 105° |
| 2026-04-29 12:03 | 35.31396 | 32.02508 | 31001 ft | 483 kts | 105° |
| 2026-04-29 12:03 | 35.30373 | 32.06385 | 30053 ft | 474 kts | 105° |
| 2026-04-29 12:04 | 35.29375 | 32.10200 | 29142 ft | 468 kts | 105° |
| 2026-04-29 12:04 | 35.28385 | 32.13994 | 28408 ft | 467 kts | 105° |
| 2026-04-29 12:04 | 35.27400 | 32.17768 | 27807 ft | 465 kts | 105° |
| 2026-04-29 12:04 | 35.26416 | 32.21530 | 27163 ft | 464 kts | 106° |
| 2026-04-29 12:05 | 35.25444 | 32.25236 | 26522 ft | 463 kts | 106° |
| 2026-04-29 12:05 | 35.24461 | 32.28976 | 25874 ft | 462 kts | 106° |
| 2026-04-29 12:05 | 35.23479 | 32.32711 | 25221 ft | 460 kts | 106° |
| 2026-04-29 12:05 | 35.22499 | 32.36429 | 24566 ft | 458 kts | 107° |
| 2026-04-29 12:06 | 35.21524 | 32.40131 | 23910 ft | 456 kts | 107° |
| 2026-04-29 12:06 | 35.20553 | 32.43810 | 23242 ft | 454 kts | 107° |
| 2026-04-29 12:06 | 35.19587 | 32.47466 | 22581 ft | 451 kts | 107° |
| 2026-04-29 12:06 | 35.18621 | 32.51108 | 21916 ft | 449 kts | 107° |
| 2026-04-29 12:07 | 35.17660 | 32.54732 | 21238 ft | 447 kts | 107° |
| 2026-04-29 12:07 | 35.16703 | 32.58337 | 20584 ft | 444 kts | 107° |
| 2026-04-29 12:07 | 35.15752 | 32.61913 | 19904 ft | 441 kts | 107° |
| 2026-04-29 12:07 | 35.14808 | 32.65458 | 19251 ft | 437 kts | 107° |
| 2026-04-29 12:08 | 35.13870 | 32.68976 | 18587 ft | 434 kts | 108° |
| 2026-04-29 12:08 | 35.12938 | 32.72467 | 17895 ft | 430 kts | 108° |
| 2026-04-29 12:08 | 35.12027 | 32.75874 | 17301 ft | 413 kts | 108° |
| 2026-04-29 12:08 | 35.11153 | 32.79132 | 16698 ft | 394 kts | 108° |
| 2026-04-29 12:09 | 35.10314 | 32.82262 | 16119 ft | 382 kts | 108° |
| 2026-04-29 12:09 | 35.09493 | 32.85310 | 15512 ft | 377 kts | 108° |
| 2026-04-29 12:09 | 35.08676 | 32.88355 | 14923 ft | 377 kts | 108° |
| 2026-04-29 12:09 | 35.07864 | 32.91385 | 14338 ft | 374 kts | 108° |
| 2026-04-29 12:10 | 35.07045 | 32.94377 | 13772 ft | 370 kts | 109° |
| 2026-04-29 12:10 | 35.06212 | 32.97303 | 13239 ft | 368 kts | 109° |
| 2026-04-29 12:10 | 35.05366 | 33.00247 | 12650 ft | 367 kts | 109° |
| 2026-04-29 12:10 | 35.04521 | 33.03183 | 12059 ft | 367 kts | 109° |
| 2026-04-29 12:11 | 35.03674 | 33.06124 | 11482 ft | 367 kts | 109° |
| 2026-04-29 12:11 | 35.02831 | 33.09053 | 10903 ft | 366 kts | 109° |
| 2026-04-29 12:11 | 35.02002 | 33.11929 | 10763 ft | 350 kts | 109° |
| 2026-04-29 12:11 | 35.01214 | 33.14662 | 10696 ft | 334 kts | 109° |
| 2026-04-29 12:12 | 35.00459 | 33.17275 | 10585 ft | 320 kts | 109° |
| 2026-04-29 12:12 | 34.99733 | 33.19792 | 10438 ft | 309 kts | 109° |
| 2026-04-29 12:12 | 34.99030 | 33.22225 | 10285 ft | 299 kts | 109° |
| 2026-04-29 12:12 | 34.98350 | 33.24577 | 10147 ft | 290 kts | 109° |
| 2026-04-29 12:13 | 34.97688 | 33.26866 | 10032 ft | 285 kts | 109° |
| 2026-04-29 12:13 | 34.97016 | 33.29190 | 9933 ft | 295 kts | 109° |
| 2026-04-29 12:13 | 34.96332 | 33.31550 | 9843 ft | 294 kts | 109° |
| 2026-04-29 12:13 | 34.95647 | 33.33907 | 9411 ft | 296 kts | 109° |
| 2026-04-29 12:14 | 34.94964 | 33.36255 | 8959 ft | 298 kts | 110° |
| 2026-04-29 12:14 | 34.94269 | 33.38627 | 8651 ft | 294 kts | 110° |
| 2026-04-29 12:14 | 34.93583 | 33.40974 | 8235 ft | 296 kts | 110° |
| 2026-04-29 12:14 | 34.92906 | 33.43323 | 7878 ft | 293 kts | 110° |
| 2026-04-29 12:15 | 34.92227 | 33.45657 | 7518 ft | 291 kts | 110° |
| 2026-04-29 12:15 | 34.91549 | 33.47982 | 7125 ft | 291 kts | 110° |
| 2026-04-29 12:15 | 34.90876 | 33.50295 | 6786 ft | 288 kts | 110° |
| 2026-04-29 12:15 | 34.90209 | 33.52594 | 6443 ft | 288 kts | 110° |
| 2026-04-29 12:16 | 34.89529 | 33.54891 | 6232 ft | 287 kts | 110° |
| 2026-04-29 12:16 | 34.88854 | 33.57146 | 5922 ft | 281 kts | 110° |
| 2026-04-29 12:16 | 34.88197 | 33.59398 | 5485 ft | 284 kts | 109° |
| 2026-04-29 12:16 | 34.87544 | 33.61661 | 5148 ft | 282 kts | 109° |
| 2026-04-29 12:17 | 34.87130 | 33.63977 | 4858 ft | 280 kts | 90° |
| 2026-04-29 12:17 | 34.87564 | 33.66273 | 4465 ft | 280 kts | 60° |
| 2026-04-29 12:17 | 34.88898 | 33.67951 | 4100 ft | 277 kts | 28° |
| 2026-04-29 12:17 | 34.90666 | 33.68753 | 3988 ft | 266 kts | 14° |
| 2026-04-29 12:18 | 34.92397 | 33.69368 | 3926 ft | 253 kts | 20° |
| 2026-04-29 12:18 | 34.93848 | 33.70465 | 3820 ft | 240 kts | 43° |
| 2026-04-29 12:18 | 34.94591 | 33.72195 | 3653 ft | 228 kts | 83° |
| 2026-04-29 12:18 | 34.94279 | 33.73957 | 3470 ft | 206 kts | 126° |
| 2026-04-29 12:19 | 34.93189 | 33.74844 | 3278 ft | 181 kts | 174° |
| 2026-04-29 12:19 | 34.92107 | 33.74464 | 3098 ft | 155 kts | 226° |
| 2026-04-29 12:19 | 34.91569 | 33.73406 | 2851 ft | 140 kts | 245° |
| 2026-04-29 12:19 | 34.91239 | 33.72309 | 2548 ft | 135 kts | 252° |
| 2026-04-29 12:20 | 34.91048 | 33.71216 | 2210 ft | 132 kts | 257° |
| 2026-04-29 12:20 | 34.90875 | 33.70100 | 1857 ft | 132 kts | 257° |
| 2026-04-29 12:20 | 34.90693 | 33.69012 | 1515 ft | 130 kts | 253° |
| 2026-04-29 12:20 | 34.90487 | 33.67946 | 1168 ft | 129 kts | 252° |
| 2026-04-29 12:21 | 34.90284 | 33.66907 | 841 ft | 127 kts | 251° |
| 2026-04-29 12:21 | 34.89948 | 33.65940 | 661 ft | 123 kts | 238° |
| 2026-04-29 12:21 | 34.89510 | 33.65035 | 481 ft | 124 kts | 229° |
| 2026-04-29 12:21 | 34.88922 | 33.64231 | 212 ft | 128 kts | 221° |
| 2026-04-29 12:22 | 34.88278 | 33.63482 | 66 ft | 128 kts | 222° |
| 2026-04-29 12:22 | 34.87652 | 33.62735 | 23 ft | 115 kts | 223° |
| 2026-04-29 12:22 | 34.87267 | 33.62262 | 18 ft | 36 kts | 226° |
| 2026-04-29 12:22 | 34.87165 | 33.62134 | 20 ft | 18 kts | 225° |
| 2026-04-29 12:23 | 34.87083 | 33.62029 | 21 ft | 17 kts | 228° |
| 2026-04-29 12:23 | 34.87016 | 33.61918 | 21 ft | 16 kts | 242° |
| 2026-04-29 12:23 | 34.86973 | 33.61797 | 23 ft | 16 kts | 251° |
| 2026-04-29 12:23 | 34.86952 | 33.61706 | 19 ft | 0 kts | 257° |
| 2026-04-29 12:25 | 34.86951 | 33.61685 | 19 ft | 4 kts | 271° |
| 2026-04-29 12:25 | 34.86969 | 33.61632 | 19 ft | 9 kts | 312° |
| 2026-04-29 12:25 | 34.87091 | 33.61689 | 19 ft | 12 kts | 43° |
| 2026-04-29 12:26 | 34.87155 | 33.61767 | 20 ft | 14 kts | 45° |
| 2026-04-29 12:26 | 34.87238 | 33.61869 | 18 ft | 19 kts | 45° |
| 2026-04-29 12:26 | 34.87336 | 33.61988 | 18 ft | 21 kts | 45° |
| 2026-04-29 12:26 | 34.87441 | 33.62116 | 17 ft | 22 kts | 45° |
| 2026-04-29 12:27 | 34.87552 | 33.62251 | 17 ft | 23 kts | 45° |
| 2026-04-29 12:27 | 34.87668 | 33.62394 | 17 ft | 24 kts | 45° |
| 2026-04-29 12:27 | 34.87768 | 33.62516 | 17 ft | 18 kts | 45° |
| 2026-04-29 12:27 | 34.87860 | 33.62625 | 16 ft | 18 kts | 44° |
| 2026-04-29 12:28 | 34.87915 | 33.62692 | 16 ft | 6 kts | 45° |
| 2026-04-29 12:28 | 34.87951 | 33.62736 | 16 ft | 11 kts | 45° |
| 2026-04-29 12:28 | 34.88010 | 33.62808 | 16 ft | 13 kts | 46° |
| 2026-04-29 12:28 | 34.88081 | 33.62894 | 16 ft | 15 kts | 41° |
| 2026-04-29 12:29 | 34.88163 | 33.62919 | 15 ft | 12 kts | 337° |
| 2026-04-29 12:29 | 34.88203 | 33.62923 | 15 ft | 0 kts | 30° |
| 2026-04-29 12:29 | 34.88236 | 33.62957 | 15 ft | 0 kts | 224° |